sensor_id;sensor_type;location;lat;lon;timestamp;temperature;humidity
16867;DHT22;8550;52.596;13.320;2023-11-19T00:01:05;5.50;99.90
16867;DHT22;8550;52.596;13.320;2023-11-19T00:06:07;5.60;99.90
16867;DHT22;8550;52.596;13.320;2023-11-19T00:11:11;5.50;99.90
16867;DHT22;8550;52.596;13.320;2023-11-19T00:16:17;5.40;99.90
16867;DHT22;8550;52.596;13.320;2023-11-19T00:21:19;5.50;99.90
16867;DHT22;8550;52.596;13.320;2023-11-19T00:26:21;5.40;99.90
16867;DHT22;8550;52.596;13.320;2023-11-19T00:31:24;5.40;99.90
16867;DHT22;8550;52.596;13.320;2023-11-19T00:36:26;5.50;99.90
16867;DHT22;8550;52.596;13.320;2023-11-19T00:41:28;5.50;99.90
16867;DHT22;8550;52.596;13.320;2023-11-19T00:46:32;5.50;99.90
16867;DHT22;8550;52.596;13.320;2023-11-19T00:51:33;5.50;99.90
16867;DHT22;8550;52.596;13.320;2023-11-19T00:56:35;5.60;99.90
16867;DHT22;8550;52.596;13.320;2023-11-19T01:01:39;5.70;99.90
16867;DHT22;8550;52.596;13.320;2023-11-19T01:06:41;5.70;99.90
16867;DHT22;8550;52.596;13.320;2023-11-19T01:11:43;5.70;99.90
16867;DHT22;8550;52.596;13.320;2023-11-19T01:16:46;5.80;99.90
16867;DHT22;8550;52.596;13.320;2023-11-19T01:21:49;5.80;99.90
16867;DHT22;8550;52.596;13.320;2023-11-19T01:26:51;5.80;99.90
16867;DHT22;8550;52.596;13.320;2023-11-19T01:31:55;5.90;99.90
16867;DHT22;8550;52.596;13.320;2023-11-19T01:36:57;6.00;99.90
16867;DHT22;8550;52.596;13.320;2023-11-19T01:41:59;6.00;99.90
16867;DHT22;8550;52.596;13.320;2023-11-19T01:47:02;5.90;99.90
16867;DHT22;8550;52.596;13.320;2023-11-19T01:52:05;5.90;99.90
16867;DHT22;8550;52.596;13.320;2023-11-19T01:57:07;5.90;99.90
16867;DHT22;8550;52.596;13.320;2023-11-19T02:02:11;5.90;99.90
16867;DHT22;8550;52.596;13.320;2023-11-19T02:07:14;6.00;99.90
16867;DHT22;8550;52.596;13.320;2023-11-19T02:12:17;6.00;99.90
16867;DHT22;8550;52.596;13.320;2023-11-19T02:17:28;6.00;99.90
16867;DHT22;8550;52.596;13.320;2023-11-19T02:22:31;5.90;99.90
16867;DHT22;8550;52.596;13.320;2023-11-19T02:27:53;5.90;99.90
16867;DHT22;8550;52.596;13.320;2023-11-19T02:32:57;5.80;99.90
16867;DHT22;8550;52.596;13.320;2023-11-19T02:37:59;5.80;99.90
16867;DHT22;8550;52.596;13.320;2023-11-19T02:43:03;5.90;99.90
16867;DHT22;8550;52.596;13.320;2023-11-19T02:48:05;5.90;99.90
16867;DHT22;8550;52.596;13.320;2023-11-19T02:53:08;5.90;99.90
16867;DHT22;8550;52.596;13.320;2023-11-19T02:58:11;6.00;99.90
16867;DHT22;8550;52.596;13.320;2023-11-19T03:03:20;6.00;99.90
16867;DHT22;8550;52.596;13.320;2023-11-19T03:08:23;6.00;99.90
16867;DHT22;8550;52.596;13.320;2023-11-19T03:13:26;6.00;99.90
16867;DHT22;8550;52.596;13.320;2023-11-19T03:18:28;6.00;99.90
16867;DHT22;8550;52.596;13.320;2023-11-19T03:23:30;6.00;99.90
16867;DHT22;8550;52.596;13.320;2023-11-19T03:28:33;6.10;99.90
16867;DHT22;8550;52.596;13.320;2023-11-19T03:33:35;6.00;99.90
16867;DHT22;8550;52.596;13.320;2023-11-19T03:38:38;6.00;99.90
16867;DHT22;8550;52.596;13.320;2023-11-19T03:43:44;5.80;99.90
16867;DHT22;8550;52.596;13.320;2023-11-19T03:48:46;5.70;99.90
16867;DHT22;8550;52.596;13.320;2023-11-19T03:53:48;5.60;99.90
16867;DHT22;8550;52.596;13.320;2023-11-19T03:58:52;5.40;99.90
16867;DHT22;8550;52.596;13.320;2023-11-19T04:03:53;5.40;99.90
16867;DHT22;8550;52.596;13.320;2023-11-19T04:08:56;5.50;99.90
16867;DHT22;8550;52.596;13.320;2023-11-19T04:13:59;5.50;99.90
16867;DHT22;8550;52.596;13.320;2023-11-19T04:19:01;5.40;99.90
16867;DHT22;8550;52.596;13.320;2023-11-19T04:24:03;5.30;99.90
16867;DHT22;8550;52.596;13.320;2023-11-19T04:29:07;5.30;99.90
16867;DHT22;8550;52.596;13.320;2023-11-19T04:34:09;5.40;99.90
16867;DHT22;8550;52.596;13.320;2023-11-19T04:39:11;5.40;99.90
16867;DHT22;8550;52.596;13.320;2023-11-19T04:44:16;5.40;99.90
16867;DHT22;8550;52.596;13.320;2023-11-19T04:49:18;5.40;99.90
16867;DHT22;8550;52.596;13.320;2023-11-19T04:54:21;5.50;99.90
16867;DHT22;8550;52.596;13.320;2023-11-19T04:59:25;5.50;99.90
16867;DHT22;8550;52.596;13.320;2023-11-19T05:04:28;5.50;99.90
16867;DHT22;8550;52.596;13.320;2023-11-19T05:09:31;5.50;99.90
16867;DHT22;8550;52.596;13.320;2023-11-19T05:14:34;5.50;99.90
16867;DHT22;8550;52.596;13.320;2023-11-19T05:19:36;5.40;99.90
16867;DHT22;8550;52.596;13.320;2023-11-19T05:24:38;5.50;99.90
16867;DHT22;8550;52.596;13.320;2023-11-19T05:29:42;5.50;99.90
16867;DHT22;8550;52.596;13.320;2023-11-19T05:34:44;5.50;99.90
16867;DHT22;8550;52.596;13.320;2023-11-19T05:39:46;5.50;99.90
16867;DHT22;8550;52.596;13.320;2023-11-19T05:44:49;5.50;99.90
16867;DHT22;8550;52.596;13.320;2023-11-19T05:49:52;5.50;99.90
16867;DHT22;8550;52.596;13.320;2023-11-19T05:54:54;5.50;99.90
16867;DHT22;8550;52.596;13.320;2023-11-19T05:59:58;5.50;99.90
16867;DHT22;8550;52.596;13.320;2023-11-19T06:05:00;5.50;99.90
16867;DHT22;8550;52.596;13.320;2023-11-19T06:10:02;5.60;99.90
16867;DHT22;8550;52.596;13.320;2023-11-19T06:15:08;5.60;99.90
16867;DHT22;8550;52.596;13.320;2023-11-19T06:20:10;5.60;99.90
16867;DHT22;8550;52.596;13.320;2023-11-19T06:25:14;5.60;99.90
16867;DHT22;8550;52.596;13.320;2023-11-19T06:30:18;5.70;99.90
16867;DHT22;8550;52.596;13.320;2023-11-19T06:35:21;5.70;99.90
16867;DHT22;8550;52.596;13.320;2023-11-19T06:40:23;5.70;99.90
16867;DHT22;8550;52.596;13.320;2023-11-19T06:45:27;5.70;99.90
16867;DHT22;8550;52.596;13.320;2023-11-19T06:50:29;5.70;99.90
16867;DHT22;8550;52.596;13.320;2023-11-19T06:55:30;5.70;99.90
16867;DHT22;8550;52.596;13.320;2023-11-19T07:00:34;5.80;99.90
16867;DHT22;8550;52.596;13.320;2023-11-19T07:05:36;5.80;99.90
16867;DHT22;8550;52.596;13.320;2023-11-19T07:10:39;5.80;99.90
16867;DHT22;8550;52.596;13.320;2023-11-19T07:15:42;5.80;99.90
16867;DHT22;8550;52.596;13.320;2023-11-19T07:20:44;5.90;99.90
16867;DHT22;8550;52.596;13.320;2023-11-19T07:25:46;5.90;99.90
16867;DHT22;8550;52.596;13.320;2023-11-19T07:30:52;6.00;99.90
16867;DHT22;8550;52.596;13.320;2023-11-19T07:35:56;6.00;99.90
16867;DHT22;8550;52.596;13.320;2023-11-19T07:40:59;6.00;99.90
16867;DHT22;8550;52.596;13.320;2023-11-19T07:46:03;6.10;99.90
16867;DHT22;8550;52.596;13.320;2023-11-19T07:51:05;6.10;99.90
16867;DHT22;8550;52.596;13.320;2023-11-19T07:56:07;6.20;99.90
16867;DHT22;8550;52.596;13.320;2023-11-19T08:01:11;6.30;99.90
16867;DHT22;8550;52.596;13.320;2023-11-19T08:06:14;6.30;99.90
16867;DHT22;8550;52.596;13.320;2023-11-19T08:11:16;6.40;99.90
16867;DHT22;8550;52.596;13.320;2023-11-19T08:16:19;6.50;99.90
16867;DHT22;8550;52.596;13.320;2023-11-19T08:21:21;6.50;99.90
16867;DHT22;8550;52.596;13.320;2023-11-19T08:26:23;6.70;99.90
16867;DHT22;8550;52.596;13.320;2023-11-19T08:31:26;6.70;99.90
16867;DHT22;8550;52.596;13.320;2023-11-19T08:36:28;6.90;99.90
16867;DHT22;8550;52.596;13.320;2023-11-19T08:41:32;6.90;99.90
16867;DHT22;8550;52.596;13.320;2023-11-19T08:46:35;7.10;99.90
16867;DHT22;8550;52.596;13.320;2023-11-19T08:51:37;7.20;99.90
16867;DHT22;8550;52.596;13.320;2023-11-19T08:56:39;7.40;99.90
16867;DHT22;8550;52.596;13.320;2023-11-19T09:01:42;7.50;99.90
16867;DHT22;8550;52.596;13.320;2023-11-19T09:06:44;7.60;99.90
16867;DHT22;8550;52.596;13.320;2023-11-19T09:11:46;7.60;99.90
16867;DHT22;8550;52.596;13.320;2023-11-19T09:16:49;7.70;99.90
16867;DHT22;8550;52.596;13.320;2023-11-19T09:21:51;7.80;99.90
16867;DHT22;8550;52.596;13.320;2023-11-19T09:26:53;8.00;99.90
16867;DHT22;8550;52.596;13.320;2023-11-19T09:31:58;8.40;99.90
16867;DHT22;8550;52.596;13.320;2023-11-19T09:37:02;8.60;99.90
16867;DHT22;8550;52.596;13.320;2023-11-19T09:42:04;8.80;99.90
16867;DHT22;8550;52.596;13.320;2023-11-19T09:47:08;8.70;99.90
16867;DHT22;8550;52.596;13.320;2023-11-19T09:52:11;9.20;99.90
16867;DHT22;8550;52.596;13.320;2023-11-19T09:57:15;9.30;99.90
16867;DHT22;8550;52.596;13.320;2023-11-19T10:02:19;9.40;99.90
16867;DHT22;8550;52.596;13.320;2023-11-19T10:07:22;9.50;99.90
16867;DHT22;8550;52.596;13.320;2023-11-19T10:12:24;9.70;99.90
16867;DHT22;8550;52.596;13.320;2023-11-19T10:17:32;9.80;99.90
16867;DHT22;8550;52.596;13.320;2023-11-19T10:22:37;9.90;99.90
16867;DHT22;8550;52.596;13.320;2023-11-19T10:27:39;10.00;99.90
16867;DHT22;8550;52.596;13.320;2023-11-19T10:32:42;10.10;99.90
16867;DHT22;8550;52.596;13.320;2023-11-19T10:37:44;10.20;99.90
16867;DHT22;8550;52.596;13.320;2023-11-19T10:42:46;10.60;99.90
16867;DHT22;8550;52.596;13.320;2023-11-19T10:47:51;10.70;99.90
16867;DHT22;8550;52.596;13.320;2023-11-19T10:52:56;10.70;99.90
16867;DHT22;8550;52.596;13.320;2023-11-19T10:58:00;10.70;99.90
16867;DHT22;8550;52.596;13.320;2023-11-19T11:03:10;11.50;99.90
16867;DHT22;8550;52.596;13.320;2023-11-19T11:08:12;11.80;99.90
16867;DHT22;8550;52.596;13.320;2023-11-19T11:13:14;12.40;99.90
16867;DHT22;8550;52.596;13.320;2023-11-19T11:18:18;12.60;99.90
16867;DHT22;8550;52.596;13.320;2023-11-19T11:23:43;12.70;99.90
16867;DHT22;8550;52.596;13.320;2023-11-19T11:28:54;13.30;99.90
16867;DHT22;8550;52.596;13.320;2023-11-19T11:34:29;13.90;99.90
16867;DHT22;8550;52.596;13.320;2023-11-19T11:39:35;14.00;99.90
16867;DHT22;8550;52.596;13.320;2023-11-19T11:44:59;14.30;99.90
16867;DHT22;8550;52.596;13.320;2023-11-19T11:50:08;14.00;99.90
16867;DHT22;8550;52.596;13.320;2023-11-19T11:55:11;13.10;99.90
16867;DHT22;8550;52.596;13.320;2023-11-19T12:00:21;12.60;99.90
16867;DHT22;8550;52.596;13.320;2023-11-19T12:05:25;12.50;99.90
16867;DHT22;8550;52.596;13.320;2023-11-19T12:10:28;12.40;99.90
16867;DHT22;8550;52.596;13.320;2023-11-19T12:15:31;12.40;99.90
16867;DHT22;8550;52.596;13.320;2023-11-19T12:20:35;12.30;99.90
16867;DHT22;8550;52.596;13.320;2023-11-19T12:25:38;12.30;99.90
16867;DHT22;8550;52.596;13.320;2023-11-19T12:30:40;12.20;99.90
16867;DHT22;8550;52.596;13.320;2023-11-19T12:35:44;12.30;99.90
16867;DHT22;8550;52.596;13.320;2023-11-19T12:40:49;12.10;99.90
16867;DHT22;8550;52.596;13.320;2023-11-19T12:46:11;11.80;99.90
16867;DHT22;8550;52.596;13.320;2023-11-19T12:51:19;11.50;99.90
16867;DHT22;8550;52.596;13.320;2023-11-19T12:56:21;11.30;99.90
16867;DHT22;8550;52.596;13.320;2023-11-19T13:01:23;11.40;99.90
16867;DHT22;8550;52.596;13.320;2023-11-19T13:06:26;11.40;99.90
16867;DHT22;8550;52.596;13.320;2023-11-19T13:11:32;11.40;99.90
16867;DHT22;8550;52.596;13.320;2023-11-19T13:16:37;11.50;99.90
16867;DHT22;8550;52.596;13.320;2023-11-19T13:21:41;11.50;99.90
16867;DHT22;8550;52.596;13.320;2023-11-19T13:26:44;11.50;99.90
16867;DHT22;8550;52.596;13.320;2023-11-19T13:31:46;11.50;99.90
16867;DHT22;8550;52.596;13.320;2023-11-19T13:36:50;11.50;99.90
16867;DHT22;8550;52.596;13.320;2023-11-19T13:41:52;11.50;99.90
16867;DHT22;8550;52.596;13.320;2023-11-19T13:46:54;11.50;99.90
16867;DHT22;8550;52.596;13.320;2023-11-19T13:51:57;11.50;99.90
16867;DHT22;8550;52.596;13.320;2023-11-19T13:56:59;11.50;99.90
16867;DHT22;8550;52.596;13.320;2023-11-19T14:02:01;11.50;99.90
16867;DHT22;8550;52.596;13.320;2023-11-19T14:07:04;11.50;99.90
16867;DHT22;8550;52.596;13.320;2023-11-19T14:12:07;11.40;99.90
16867;DHT22;8550;52.596;13.320;2023-11-19T14:17:09;11.50;99.90
16867;DHT22;8550;52.596;13.320;2023-11-19T14:22:14;11.50;99.90
16867;DHT22;8550;52.596;13.320;2023-11-19T14:27:16;11.50;99.90
16867;DHT22;8550;52.596;13.320;2023-11-19T14:32:18;11.40;99.90
16867;DHT22;8550;52.596;13.320;2023-11-19T14:37:21;11.40;99.90
16867;DHT22;8550;52.596;13.320;2023-11-19T14:42:23;11.30;99.90
16867;DHT22;8550;52.596;13.320;2023-11-19T14:47:26;11.30;99.90
16867;DHT22;8550;52.596;13.320;2023-11-19T14:52:29;11.30;99.90
16867;DHT22;8550;52.596;13.320;2023-11-19T14:57:31;11.40;99.90
16867;DHT22;8550;52.596;13.320;2023-11-19T15:02:33;11.30;99.90
16867;DHT22;8550;52.596;13.320;2023-11-19T15:07:36;11.40;99.90
16867;DHT22;8550;52.596;13.320;2023-11-19T15:12:38;11.40;99.90
16867;DHT22;8550;52.596;13.320;2023-11-19T15:17:42;11.40;99.90
16867;DHT22;8550;52.596;13.320;2023-11-19T15:22:45;11.40;99.90
16867;DHT22;8550;52.596;13.320;2023-11-19T15:27:47;11.30;99.90
16867;DHT22;8550;52.596;13.320;2023-11-19T15:32:49;11.30;99.90
16867;DHT22;8550;52.596;13.320;2023-11-19T15:37:52;11.20;99.90
16867;DHT22;8550;52.596;13.320;2023-11-19T15:42:54;11.20;99.90
16867;DHT22;8550;52.596;13.320;2023-11-19T15:47:58;11.20;99.90
16867;DHT22;8550;52.596;13.320;2023-11-19T15:53:01;11.20;99.90
16867;DHT22;8550;52.596;13.320;2023-11-19T15:58:03;11.20;99.90
16867;DHT22;8550;52.596;13.320;2023-11-19T16:03:05;11.20;99.90
16867;DHT22;8550;52.596;13.320;2023-11-19T16:08:09;11.20;99.90
16867;DHT22;8550;52.596;13.320;2023-11-19T16:13:11;11.20;99.90
16867;DHT22;8550;52.596;13.320;2023-11-19T16:18:13;11.10;99.90
16867;DHT22;8550;52.596;13.320;2023-11-19T16:23:16;11.10;99.90
16867;DHT22;8550;52.596;13.320;2023-11-19T16:28:20;11.10;99.90
16867;DHT22;8550;52.596;13.320;2023-11-19T16:33:24;10.90;99.90
16867;DHT22;8550;52.596;13.320;2023-11-19T16:38:28;10.90;99.90
16867;DHT22;8550;52.596;13.320;2023-11-19T16:43:34;10.90;99.90
16867;DHT22;8550;52.596;13.320;2023-11-19T16:48:35;10.90;99.90
16867;DHT22;8550;52.596;13.320;2023-11-19T16:53:43;10.80;99.90
16867;DHT22;8550;52.596;13.320;2023-11-19T16:58:45;10.70;99.90
16867;DHT22;8550;52.596;13.320;2023-11-19T17:03:48;10.70;99.90
16867;DHT22;8550;52.596;13.320;2023-11-19T17:08:52;10.80;99.90
16867;DHT22;8550;52.596;13.320;2023-11-19T17:13:54;10.80;99.90
16867;DHT22;8550;52.596;13.320;2023-11-19T17:18:56;10.80;99.90
16867;DHT22;8550;52.596;13.320;2023-11-19T17:24:00;10.70;99.90
16867;DHT22;8550;52.596;13.320;2023-11-19T17:29:03;10.70;99.90
16867;DHT22;8550;52.596;13.320;2023-11-19T17:34:05;10.60;99.90
16867;DHT22;8550;52.596;13.320;2023-11-19T17:39:08;10.50;99.90
16867;DHT22;8550;52.596;13.320;2023-11-19T17:44:11;10.50;99.90
16867;DHT22;8550;52.596;13.320;2023-11-19T17:49:13;10.40;99.90
16867;DHT22;8550;52.596;13.320;2023-11-19T17:54:16;10.40;99.90
16867;DHT22;8550;52.596;13.320;2023-11-19T17:59:19;10.40;99.90
16867;DHT22;8550;52.596;13.320;2023-11-19T18:04:25;10.30;99.90
16867;DHT22;8550;52.596;13.320;2023-11-19T18:09:28;10.20;99.90
16867;DHT22;8550;52.596;13.320;2023-11-19T18:14:30;10.10;99.90
16867;DHT22;8550;52.596;13.320;2023-11-19T18:19:33;10.00;99.90
16867;DHT22;8550;52.596;13.320;2023-11-19T18:24:36;9.90;99.90
16867;DHT22;8550;52.596;13.320;2023-11-19T18:29:39;9.90;99.90
16867;DHT22;8550;52.596;13.320;2023-11-19T18:34:42;9.90;99.90
16867;DHT22;8550;52.596;13.320;2023-11-19T18:39:46;9.90;99.90
16867;DHT22;8550;52.596;13.320;2023-11-19T18:44:48;9.90;99.90
16867;DHT22;8550;52.596;13.320;2023-11-19T18:49:50;9.80;99.90
16867;DHT22;8550;52.596;13.320;2023-11-19T18:54:54;9.80;99.90
16867;DHT22;8550;52.596;13.320;2023-11-19T18:59:56;9.80;99.90
16867;DHT22;8550;52.596;13.320;2023-11-19T19:04:58;9.80;99.90
16867;DHT22;8550;52.596;13.320;2023-11-19T19:10:02;9.80;99.90
16867;DHT22;8550;52.596;13.320;2023-11-19T19:15:05;9.80;99.90
16867;DHT22;8550;52.596;13.320;2023-11-19T19:20:11;9.80;99.90
16867;DHT22;8550;52.596;13.320;2023-11-19T19:25:16;9.90;99.90
16867;DHT22;8550;52.596;13.320;2023-11-19T19:30:18;10.00;99.90
16867;DHT22;8550;52.596;13.320;2023-11-19T19:35:22;10.00;99.90
16867;DHT22;8550;52.596;13.320;2023-11-19T19:40:30;10.00;99.90
16867;DHT22;8550;52.596;13.320;2023-11-19T19:45:33;10.00;99.90
16867;DHT22;8550;52.596;13.320;2023-11-19T19:50:36;10.10;99.90
16867;DHT22;8550;52.596;13.320;2023-11-19T19:55:39;10.10;99.90
16867;DHT22;8550;52.596;13.320;2023-11-19T20:00:41;10.10;99.90
16867;DHT22;8550;52.596;13.320;2023-11-19T20:05:44;10.10;99.90
16867;DHT22;8550;52.596;13.320;2023-11-19T20:10:47;10.10;99.90
16867;DHT22;8550;52.596;13.320;2023-11-19T20:15:49;10.10;99.90
16867;DHT22;8550;52.596;13.320;2023-11-19T20:20:53;10.10;99.90
16867;DHT22;8550;52.596;13.320;2023-11-19T20:25:56;10.10;99.90
16867;DHT22;8550;52.596;13.320;2023-11-19T20:30:58;10.10;99.90
16867;DHT22;8550;52.596;13.320;2023-11-19T20:36:00;10.20;99.90
16867;DHT22;8550;52.596;13.320;2023-11-19T20:41:03;10.20;99.90
16867;DHT22;8550;52.596;13.320;2023-11-19T20:46:06;10.20;99.90
16867;DHT22;8550;52.596;13.320;2023-11-19T20:51:08;10.30;99.90
16867;DHT22;8550;52.596;13.320;2023-11-19T20:56:11;10.30;99.90
16867;DHT22;8550;52.596;13.320;2023-11-19T21:01:13;10.30;99.90
16867;DHT22;8550;52.596;13.320;2023-11-19T21:06:15;10.40;99.90
16867;DHT22;8550;52.596;13.320;2023-11-19T21:11:19;10.40;99.90
16867;DHT22;8550;52.596;13.320;2023-11-19T21:16:21;10.30;99.90
16867;DHT22;8550;52.596;13.320;2023-11-19T21:21:23;10.30;99.90
16867;DHT22;8550;52.596;13.320;2023-11-19T21:26:26;10.30;99.90
16867;DHT22;8550;52.596;13.320;2023-11-19T21:31:28;10.20;99.90
16867;DHT22;8550;52.596;13.320;2023-11-19T21:36:30;10.20;99.90
16867;DHT22;8550;52.596;13.320;2023-11-19T21:41:33;10.10;99.90
16867;DHT22;8550;52.596;13.320;2023-11-19T21:46:35;10.10;99.90
16867;DHT22;8550;52.596;13.320;2023-11-19T21:51:40;10.10;99.90
16867;DHT22;8550;52.596;13.320;2023-11-19T21:56:44;10.10;99.90
16867;DHT22;8550;52.596;13.320;2023-11-19T22:01:46;10.00;99.90
16867;DHT22;8550;52.596;13.320;2023-11-19T22:06:47;10.00;99.90
16867;DHT22;8550;52.596;13.320;2023-11-19T22:11:51;10.00;99.90
16867;DHT22;8550;52.596;13.320;2023-11-19T22:16:53;10.00;99.90
16867;DHT22;8550;52.596;13.320;2023-11-19T22:21:55;10.00;99.90
16867;DHT22;8550;52.596;13.320;2023-11-19T22:26:58;10.10;99.90
16867;DHT22;8550;52.596;13.320;2023-11-19T22:32:00;10.10;99.90
16867;DHT22;8550;52.596;13.320;2023-11-19T22:37:02;10.10;99.90
16867;DHT22;8550;52.596;13.320;2023-11-19T22:42:06;10.10;99.90
16867;DHT22;8550;52.596;13.320;2023-11-19T22:47:07;10.20;99.90
16867;DHT22;8550;52.596;13.320;2023-11-19T22:52:09;10.20;99.90
16867;DHT22;8550;52.596;13.320;2023-11-19T22:57:13;10.10;99.90
16867;DHT22;8550;52.596;13.320;2023-11-19T23:02:14;10.30;99.90
16867;DHT22;8550;52.596;13.320;2023-11-19T23:07:17;10.30;99.90
16867;DHT22;8550;52.596;13.320;2023-11-19T23:12:20;10.30;99.90
16867;DHT22;8550;52.596;13.320;2023-11-19T23:17:22;10.20;99.90
16867;DHT22;8550;52.596;13.320;2023-11-19T23:22:27;10.30;99.90
16867;DHT22;8550;52.596;13.320;2023-11-19T23:27:30;10.30;99.90
16867;DHT22;8550;52.596;13.320;2023-11-19T23:32:32;10.40;99.90
16867;DHT22;8550;52.596;13.320;2023-11-19T23:37:35;10.40;99.90
16867;DHT22;8550;52.596;13.320;2023-11-19T23:42:38;10.40;99.90
16867;DHT22;8550;52.596;13.320;2023-11-19T23:47:42;10.40;99.90
16867;DHT22;8550;52.596;13.320;2023-11-19T23:52:45;10.40;99.90
16867;DHT22;8550;52.596;13.320;2023-11-19T23:57:49;10.40;99.90
